createdAt,value
2023-03-18T00:02:20.085Z,100695.44
2023-03-18T00:04:47.795Z,100695.50
2023-03-18T00:07:15.560Z,100686.69
2023-03-18T00:09:43.341Z,100690.25
2023-03-18T00:12:12.181Z,100688.53
2023-03-18T00:14:41.242Z,100690.28
2023-03-18T00:17:09.534Z,100691.16
2023-03-18T00:19:37.254Z,100680.63
2023-03-18T00:22:04.947Z,100681.56
2023-03-18T00:24:32.615Z,100692.91
2023-03-18T00:27:00.417Z,100685.94
2023-03-18T00:29:28.071Z,100685.09
2023-03-18T00:31:57.453Z,100693.00
2023-03-18T00:34:25.979Z,100703.53
2023-03-18T00:36:57.082Z,100714.03
2023-03-18T00:39:26.637Z,100712.25
2023-03-18T00:41:55.959Z,100714.03
2023-03-18T00:44:25.269Z,100709.63
2023-03-18T00:46:53.102Z,100709.66
2023-03-18T00:49:22.160Z,100707.91
2023-03-18T00:51:49.823Z,100706.19
2023-03-18T00:54:19.668Z,100708.81
2023-03-18T00:56:47.633Z,100708.81
2023-03-18T00:59:15.319Z,100702.69
2023-03-18T01:01:43.019Z,100698.31
2023-03-18T01:04:11.466Z,100698.31
2023-03-18T01:06:40.527Z,100697.44
2023-03-18T01:09:08.902Z,100705.31
2023-03-18T01:11:36.629Z,100701.84
2023-03-18T01:14:04.604Z,100699.22
2023-03-18T01:16:32.332Z,100704.47
2023-03-18T01:19:00.039Z,100699.22
2023-03-18T01:21:27.918Z,100706.19
2023-03-18T01:23:57.046Z,100711.44
2023-03-18T01:26:26.171Z,100709.72
2023-03-18T01:28:53.968Z,100710.59
2023-03-18T01:31:21.843Z,100712.34
2023-03-18T01:33:49.899Z,100709.72
2023-03-18T01:36:17.638Z,100709.72
2023-03-18T01:38:45.333Z,100707.94
2023-03-18T01:41:14.363Z,100705.31
2023-03-18T01:43:43.108Z,100702.72
2023-03-18T01:46:36.342Z,100704.50
2023-03-18T01:49:06.396Z,100711.53
2023-03-18T01:51:34.052Z,100710.69
2023-03-18T01:54:03.252Z,100703.69
2023-03-18T01:56:32.435Z,100707.19
2023-03-18T01:59:00.249Z,100708.06
2023-03-18T02:01:30.881Z,100709.81
2023-03-18T02:03:59.710Z,100708.94
2023-03-18T02:06:27.402Z,100705.47
2023-03-18T02:08:55.460Z,100702.84
2023-03-18T02:13:52.479Z,100701.97
2023-03-18T02:16:22.569Z,100705.47
2023-03-18T02:18:51.396Z,100708.09
2023-03-18T02:21:27.155Z,100706.34
2023-03-18T02:23:57.792Z,100706.34
2023-03-18T02:26:28.512Z,100701.09
2023-03-18T02:28:59.356Z,100704.63
2023-03-18T02:31:27.190Z,100711.66
2023-03-18T02:33:54.900Z,100708.16
2023-03-18T02:36:25.271Z,100712.50
2023-03-18T02:38:52.938Z,100712.56
2023-03-18T02:41:21.660Z,100708.16
2023-03-18T02:43:49.435Z,100722.22
2023-03-18T02:46:30.766Z,100722.22
2023-03-18T02:48:59.031Z,100721.34
2023-03-18T02:51:27.141Z,100711.72
2023-03-18T02:53:55.684Z,100715.25
2023-03-18T02:56:23.502Z,100718.72
2023-03-18T02:58:51.828Z,100703.00
2023-03-18T03:01:19.599Z,100699.53
2023-03-18T03:03:48.660Z,100702.16
2023-03-18T03:06:16.933Z,100709.16
2023-03-18T03:08:44.715Z,100710.91
2023-03-18T03:11:12.557Z,100715.31
2023-03-18T03:13:41.394Z,100715.28
2023-03-18T03:16:10.640Z,100712.69
2023-03-18T03:18:38.350Z,100717.03
2023-03-18T03:21:07.775Z,100705.66
2023-03-18T03:23:35.584Z,100707.44
2023-03-18T03:26:04.142Z,100705.72
2023-03-18T03:28:32.742Z,100708.34
2023-03-18T03:31:00.666Z,100703.09
2023-03-18T03:33:28.451Z,100706.63
2023-03-18T03:35:58.010Z,100712.72
2023-03-18T03:38:27.164Z,100713.66
2023-03-18T03:40:54.887Z,100720.66
2023-03-18T03:43:22.598Z,100718.91
2023-03-18T03:45:50.694Z,100714.50
2023-03-18T03:48:18.399Z,100719.75
2023-03-18T03:50:46.556Z,100725.91
2023-03-18T03:53:14.298Z,100720.66
2023-03-18T03:55:44.436Z,100718.94
2023-03-18T03:58:12.106Z,100719.84
2023-03-18T04:00:39.785Z,100715.47
2023-03-18T04:03:07.494Z,100724.19
2023-03-18T04:05:35.182Z,100732.97
2023-03-18T04:08:02.871Z,100730.38
2023-03-18T04:10:31.127Z,100736.47
2023-03-18T04:13:00.295Z,100731.22
2023-03-18T04:15:28.503Z,100730.38
2023-03-18T04:17:56.351Z,100738.25
2023-03-18T04:20:24.015Z,100738.25
2023-03-18T04:22:51.818Z,100734.81
2023-03-18T04:25:19.749Z,100743.56
2023-03-18T04:27:47.445Z,100747.94
2023-03-18T04:30:17.795Z,100741.84
2023-03-18T04:32:45.508Z,100740.97
2023-03-18T04:35:13.403Z,100749.75
2023-03-18T04:37:41.054Z,100745.41
2023-03-18T04:40:09.693Z,100738.38
2023-03-18T04:42:37.351Z,100735.75
2023-03-18T04:45:05.852Z,100727.03
2023-03-18T04:47:35.938Z,100740.16
2023-03-18T04:50:04.550Z,100741.91
2023-03-18T04:52:32.292Z,100742.81
2023-03-18T04:55:00.293Z,100741.91
2023-03-18T04:57:28.541Z,100746.38
2023-03-18T04:59:56.612Z,100753.31
2023-03-18T05:02:24.601Z,100756.88
2023-03-18T05:04:53.618Z,100755.06
2023-03-18T05:07:21.674Z,100754.25
2023-03-18T05:09:49.386Z,100763.88
2023-03-18T05:12:17.408Z,100762.16
2023-03-18T05:14:45.163Z,100767.41
2023-03-18T05:17:15.742Z,100771.78
2023-03-18T05:19:44.442Z,100767.44
2023-03-18T05:22:13.724Z,100771.78
2023-03-18T05:24:41.454Z,100768.28
2023-03-18T05:27:09.275Z,100770.06
2023-03-18T05:29:38.103Z,100772.66
2023-03-18T05:32:07.026Z,100770.06
2023-03-18T05:34:34.862Z,100781.41
2023-03-18T05:37:02.988Z,100775.31
2023-03-18T05:39:33.086Z,100785.81
2023-03-18T05:42:00.806Z,100770.06
2023-03-18T05:44:28.469Z,100781.41
2023-03-18T05:46:56.213Z,100784.91
2023-03-18T05:49:24.479Z,100777.91
2023-03-18T05:51:54.808Z,100784.88
2023-03-18T05:54:22.650Z,100781.34
2023-03-18T05:56:52.686Z,100783.97
2023-03-18T05:59:20.619Z,100782.22
2023-03-18T06:01:49.033Z,100794.41
2023-03-18T06:04:18.366Z,100792.72
2023-03-18T06:06:46.373Z,100793.50
2023-03-18T06:09:14.141Z,100796.13
2023-03-18T06:11:42.189Z,100804.88
2023-03-18T06:14:11.379Z,100797.84
2023-03-18T06:16:39.308Z,100799.59
2023-03-18T06:19:07.708Z,100814.47
2023-03-18T06:21:36.192Z,100810.09
2023-03-18T06:24:03.869Z,100813.56
2023-03-18T06:26:31.526Z,100807.44
2023-03-18T06:28:59.355Z,100820.56
2023-03-18T06:31:28.545Z,100814.44
2023-03-18T06:33:56.251Z,100816.16
2023-03-18T06:36:23.946Z,100817.03
2023-03-18T06:38:52.031Z,100814.38
2023-03-18T06:41:19.725Z,100822.25
2023-03-18T06:43:50.412Z,100824.00
2023-03-18T06:46:18.708Z,100826.59
2023-03-18T06:48:48.879Z,100824.88
2023-03-18T06:51:16.596Z,100844.97
2023-03-18T06:53:44.267Z,100833.56
2023-03-18T06:56:15.747Z,100844.06
2023-03-18T06:58:43.458Z,100849.28
2023-03-18T07:01:12.445Z,100854.50
2023-03-18T07:03:40.181Z,100857.03
2023-03-18T07:06:10.290Z,100856.13
2023-03-18T07:08:37.993Z,100862.31
2023-03-18T07:11:07.062Z,100867.56
2023-03-18T07:13:35.771Z,100864.94
2023-03-18T07:16:03.557Z,100860.56
2023-03-18T07:18:31.447Z,100859.72
2023-03-18T07:20:59.670Z,100872.81
2023-03-18T07:23:28.750Z,100888.50
2023-03-18T07:25:56.472Z,100890.28
2023-03-18T07:28:24.182Z,100890.28
2023-03-18T07:30:54.142Z,100901.63
2023-03-18T07:33:22.125Z,100893.75
2023-03-18T07:35:49.993Z,100892.00
2023-03-18T07:38:18.124Z,100895.53
2023-03-18T07:40:47.311Z,100904.25
2023-03-18T07:43:15.379Z,100902.50
2023-03-18T07:45:44.296Z,100907.75
2023-03-18T07:48:12.667Z,100909.47
2023-03-18T07:50:40.870Z,100909.47
2023-03-18T07:53:08.542Z,100909.47
2023-03-18T07:55:36.229Z,100916.44
2023-03-18T07:58:05.412Z,100912.09
2023-03-18T08:00:33.483Z,100923.44
2023-03-18T08:03:01.143Z,100925.19
2023-03-18T08:05:28.864Z,100926.91
2023-03-18T08:07:56.603Z,100934.78
2023-03-18T08:10:25.297Z,100934.78
2023-03-18T08:12:54.072Z,100931.31
2023-03-18T08:15:23.330Z,100950.53
2023-03-18T08:17:51.095Z,100952.31
2023-03-18T08:20:19.107Z,100953.16
2023-03-18T08:22:46.826Z,100954.91
2023-03-18T08:25:15.040Z,100962.81
2023-03-18T08:27:42.737Z,100959.28
2023-03-18T08:30:11.403Z,100962.81
2023-03-18T08:32:40.578Z,100957.53
2023-03-18T08:35:09.702Z,100965.44
2023-03-18T08:37:37.641Z,100976.78
2023-03-18T08:40:06.133Z,100979.41
2023-03-18T08:42:33.824Z,100977.69
2023-03-18T08:45:01.808Z,100980.31
2023-03-18T08:47:29.524Z,100982.94
2023-03-18T08:49:58.726Z,100989.91
2023-03-18T08:52:26.553Z,100989.06
2023-03-18T08:54:54.323Z,100991.63
2023-03-18T08:57:22.075Z,100994.22
2023-03-18T08:59:49.955Z,100993.38
2023-03-18T09:02:18.333Z,100998.56
2023-03-18T09:04:47.604Z,101007.28
2023-03-18T09:07:18.965Z,101001.16
2023-03-18T09:09:46.861Z,101008.16
2023-03-18T09:12:15.014Z,100999.38
2023-03-18T09:14:43.873Z,101007.25
2023-03-18T09:17:11.708Z,101008.97
2023-03-18T09:19:39.465Z,101008.97
2023-03-18T09:22:07.160Z,101008.06
2023-03-18T09:24:36.179Z,101019.41
2023-03-18T09:27:03.861Z,101021.13
2023-03-18T09:29:31.917Z,101018.50
2023-03-18T09:32:00.598Z,101027.19
2023-03-18T09:34:28.283Z,101021.06
2023-03-18T09:36:58.092Z,101014.91
2023-03-18T09:39:25.951Z,101019.25
2023-03-18T09:42:03.475Z,101020.97
2023-03-18T09:44:31.729Z,101027.13
2023-03-18T09:47:24.737Z,101027.13
2023-03-18T09:50:08.276Z,101035.00
2023-03-18T09:52:37.108Z,101037.59
2023-03-18T09:55:05.860Z,101034.94
2023-03-18T09:57:35.854Z,101041.00
2023-03-18T10:00:08.980Z,101034.78
2023-03-18T10:02:37.863Z,101027.75
2023-03-18T10:05:06.810Z,101025.94
2023-03-18T10:07:36.660Z,101027.63
2023-03-18T10:10:06.730Z,101020.66
2023-03-18T10:12:36.566Z,101032.13
2023-03-18T10:15:14.718Z,101036.50
2023-03-18T10:17:43.454Z,101031.25
2023-03-18T10:20:17.112Z,101038.25
2023-03-18T10:22:55.626Z,101044.28
2023-03-18T10:25:27.080Z,101038.13
2023-03-18T10:28:06.684Z,101041.59
2023-03-18T10:30:42.972Z,101038.88
2023-03-18T10:33:15.357Z,101036.19
2023-03-18T10:35:46.756Z,101041.41
2023-03-18T10:38:19.214Z,101042.19
2023-03-18T10:40:49.283Z,101049.16
2023-03-18T10:43:20.470Z,101046.50
2023-03-18T10:45:49.528Z,101037.66
2023-03-18T10:48:20.189Z,101042.84
2023-03-18T10:50:51.548Z,101034.78
2023-03-18T10:53:21.039Z,101041.69
2023-03-18T10:55:57.423Z,101045.16
2023-03-18T10:58:28.035Z,101048.59
2023-03-18T11:00:55.724Z,101052.06
2023-03-18T11:03:26.042Z,101059.75
2023-03-18T11:05:53.860Z,101063.19
2023-03-18T11:08:35.450Z,101066.66
2023-03-18T11:11:27.663Z,101069.25
2023-03-18T11:14:01.744Z,101066.59
2023-03-18T11:16:35.853Z,101070.03
2023-03-18T11:19:09.115Z,101080.56
2023-03-18T11:21:37.499Z,101076.03
2023-03-18T11:24:20.940Z,101078.63
2023-03-18T11:26:53.558Z,101081.19
2023-03-18T11:29:24.378Z,101085.53
2023-03-18T11:31:54.799Z,101081.22
2023-03-18T11:34:22.521Z,101084.72
2023-03-18T11:37:01.173Z,101083.84
2023-03-18T11:39:30.785Z,101085.59
2023-03-18T11:41:59.456Z,101091.78
2023-03-18T11:44:32.502Z,101091.75
2023-03-18T11:47:03.886Z,101089.09
2023-03-18T11:49:31.634Z,101091.66
2023-03-18T11:52:06.585Z,101089.00
2023-03-18T11:55:02.107Z,101091.56
2023-03-18T11:57:33.208Z,101099.56
2023-03-18T12:00:11.330Z,101094.28
2023-03-18T12:03:06.881Z,101096.00
2023-03-18T12:05:55.048Z,101098.59
2023-03-18T12:08:29.610Z,101098.44
2023-03-18T12:11:05.938Z,101095.84
2023-03-18T12:13:37.622Z,101094.97
2023-03-18T12:16:10.856Z,101100.94
2023-03-18T12:18:45.751Z,101096.41
2023-03-18T12:21:37.726Z,101097.16
2023-03-18T12:24:13.348Z,101101.44
2023-03-18T12:26:41.932Z,101106.69
2023-03-18T12:29:19.942Z,101102.22
2023-03-18T12:31:53.367Z,101102.09
2023-03-18T12:34:28.732Z,101108.13
2023-03-18T12:37:04.105Z,101110.66
2023-03-18T12:40:19.910Z,101112.22
2023-03-18T12:42:55.622Z,101107.81
2023-03-18T12:45:24.293Z,101112.19
2023-03-18T12:47:55.100Z,101099.19
2023-03-18T12:50:25.392Z,101103.56
2023-03-18T12:52:54.956Z,101104.44
2023-03-18T12:55:24.364Z,101102.72
2023-03-18T12:57:55.027Z,101100.03
2023-03-18T13:00:25.929Z,101098.97
2023-03-18T13:02:59.153Z,101105.97
2023-03-18T13:05:36.770Z,101105.97
2023-03-18T13:08:41.641Z,101102.31
2023-03-18T13:11:12.415Z,101103.03
2023-03-18T13:13:41.340Z,101107.31
2023-03-18T13:16:09.049Z,101110.75
2023-03-18T13:18:40.396Z,101116.75
2023-03-18T13:21:08.140Z,101118.41
2023-03-18T13:23:42.522Z,101120.97
2023-03-18T13:26:12.419Z,101122.66
2023-03-18T13:28:46.127Z,101123.50
2023-03-18T13:31:19.952Z,101124.41
2023-03-18T13:34:11.155Z,101128.94
2023-03-18T13:37:08.524Z,101133.41
2023-03-18T13:39:43.784Z,101127.28
2023-03-18T13:42:20.472Z,101127.25
2023-03-18T13:44:51.062Z,101125.28
2023-03-18T13:47:19.685Z,101129.41
2023-03-18T13:49:49.145Z,101119.66
2023-03-18T13:52:24.288Z,101122.91
2023-03-18T13:54:52.706Z,101128.09
2023-03-18T13:57:33.853Z,101124.69
2023-03-18T14:00:25.361Z,101129.09
2023-03-18T14:03:07.702Z,101124.72
2023-03-18T14:05:40.211Z,101125.69
2023-03-18T14:08:34.194Z,101117.47
2023-03-18T14:11:47.579Z,101128.09
2023-03-18T14:14:41.220Z,101127.31
2023-03-18T14:17:19.142Z,101126.53
2023-03-18T14:19:47.162Z,101127.50
2023-03-18T14:22:20.554Z,101125.78
2023-03-18T14:24:48.739Z,101119.75
2023-03-18T14:27:18.239Z,101128.66
2023-03-18T14:29:47.265Z,101126.09
2023-03-18T14:32:38.129Z,101122.69
2023-03-18T14:35:18.261Z,101127.22
2023-03-18T14:38:00.790Z,101136.00
2023-03-18T14:40:28.532Z,101136.09
2023-03-18T14:42:58.530Z,101129.09
2023-03-18T14:45:27.456Z,101131.72
2023-03-18T14:47:55.485Z,101130.84
2023-03-18T14:50:30.713Z,101129.09
2023-03-18T14:53:03.903Z,101125.66
2023-03-18T14:55:32.701Z,101130.97
2023-03-18T14:58:01.133Z,101124.88
2023-03-18T15:00:31.250Z,101125.84
2023-03-18T15:03:01.432Z,101121.47
2023-03-18T15:05:32.671Z,101125.00
2023-03-18T15:08:01.891Z,101131.16
2023-03-18T15:10:31.597Z,101131.84
2023-03-18T15:13:04.360Z,101122.22
2023-03-18T15:15:32.870Z,101120.94
2023-03-18T15:18:05.964Z,101123.72
2023-03-18T15:20:34.453Z,101121.28
2023-03-18T15:23:04.658Z,101123.19
2023-03-18T15:25:32.500Z,101124.13
2023-03-18T15:28:01.154Z,101121.56
2023-03-18T15:30:29.678Z,101119.44
2023-03-18T15:33:04.571Z,101124.72
2023-03-18T15:35:32.812Z,101131.72
2023-03-18T15:38:17.356Z,101119.16
2023-03-18T15:40:49.674Z,101127.47
2023-03-18T15:43:28.994Z,101122.75
2023-03-18T15:45:58.599Z,101123.47
2023-03-18T15:48:29.861Z,101123.25
2023-03-18T15:50:59.962Z,101123.44
2023-03-18T15:53:30.265Z,101128.09
2023-03-18T15:55:58.640Z,101126.16
2023-03-18T15:58:27.552Z,101121.53
2023-03-18T16:00:55.853Z,101130.41
2023-03-18T16:03:24.635Z,101130.41
2023-03-18T16:05:52.665Z,101134.03
2023-03-18T16:08:21.365Z,101131.47
2023-03-18T16:10:51.118Z,101125.44
2023-03-18T16:13:21.460Z,101126.50
2023-03-18T16:15:49.264Z,101136.31
2023-03-18T16:18:18.163Z,101128.53
2023-03-18T16:20:46.696Z,101133.09
2023-03-18T16:23:15.280Z,101141.94
2023-03-18T16:25:46.001Z,101143.59
2023-03-18T16:28:21.052Z,101140.00
2023-03-18T16:30:49.550Z,101142.63
2023-03-18T16:33:18.117Z,101146.28
2023-03-18T16:35:46.653Z,101149.00
2023-03-18T16:38:15.505Z,101156.16
2023-03-18T16:40:43.287Z,101152.81
2023-03-18T16:43:19.881Z,101155.53
2023-03-18T16:45:48.519Z,101153.91
2023-03-18T16:48:17.571Z,101152.19
2023-03-18T16:50:47.500Z,101159.34
2023-03-18T16:53:18.380Z,101158.59
2023-03-18T16:55:46.804Z,101156.94
2023-03-18T16:58:17.191Z,101152.63
2023-03-18T17:00:48.168Z,101157.97
2023-03-18T17:03:18.100Z,101154.59
2023-03-18T17:05:46.302Z,101152.03
2023-03-18T17:08:14.158Z,101156.53
2023-03-18T17:10:42.484Z,101147.91
2023-03-18T17:13:14.834Z,101158.47
2023-03-18T17:15:42.899Z,101163.84
2023-03-18T17:18:14.695Z,101171.88
2023-03-18T17:20:42.561Z,101173.69
2023-03-18T17:23:15.480Z,101178.19
2023-03-18T17:25:43.845Z,101180.91
2023-03-18T17:28:11.984Z,101177.53
2023-03-18T17:30:40.267Z,101177.56
2023-03-18T17:33:24.611Z,101179.44
2023-03-18T17:35:52.673Z,101190.00
2023-03-18T17:38:20.455Z,101186.56
2023-03-18T17:40:48.705Z,101184.91
2023-03-18T17:43:22.456Z,101186.69
2023-03-18T17:45:50.223Z,101188.53
2023-03-18T17:48:19.849Z,101181.56
2023-03-18T17:50:49.238Z,101187.78
2023-03-18T17:53:24.596Z,101182.59
2023-03-18T17:55:53.372Z,101187.88
2023-03-18T17:58:22.154Z,101189.69
2023-03-18T18:00:50.073Z,101182.75
2023-03-18T18:03:25.545Z,101190.69
2023-03-18T18:05:55.122Z,101189.00
2023-03-18T18:08:24.433Z,101185.53
2023-03-18T18:10:52.124Z,101200.50
2023-03-18T18:13:21.743Z,101199.66
2023-03-18T18:15:50.513Z,101199.69
2023-03-18T18:18:23.923Z,101200.63
2023-03-18T18:20:54.941Z,101204.16
2023-03-18T18:23:25.076Z,101193.72
2023-03-18T18:25:52.992Z,101198.97
2023-03-18T18:28:22.076Z,101211.31
2023-03-18T18:30:49.865Z,101199.06
2023-03-18T18:33:17.589Z,101205.22
2023-03-18T18:35:45.276Z,101198.22
2023-03-18T18:38:14.303Z,101191.28
2023-03-18T18:40:42.518Z,101198.31
2023-03-18T18:43:10.959Z,101199.22
2023-03-18T18:45:38.660Z,101200.13
2023-03-18T18:48:14.056Z,101202.78
2023-03-18T18:50:42.361Z,101197.53
2023-03-18T18:53:16.016Z,101200.19
2023-03-18T18:55:43.723Z,101208.13
2023-03-18T18:58:18.623Z,101207.25
2023-03-18T19:00:48.432Z,101200.28
2023-03-18T19:03:16.691Z,101208.19
2023-03-18T19:05:45.800Z,101215.22
2023-03-18T19:08:25.399Z,101208.22
2023-03-18T19:10:54.262Z,101204.78
2023-03-18T19:13:22.021Z,101213.53
2023-03-18T19:15:50.011Z,101203.94
2023-03-18T19:18:19.612Z,101196.97
2023-03-18T19:20:48.165Z,101196.09
2023-03-18T19:23:17.448Z,101196.97
2023-03-18T19:25:47.631Z,101196.13
2023-03-18T19:28:18.405Z,101196.19
2023-03-18T19:30:46.087Z,101200.56
2023-03-18T19:33:15.315Z,101193.59
2023-03-18T19:35:43.186Z,101198.88
2023-03-18T19:38:16.195Z,101198.88
2023-03-18T19:40:43.896Z,101193.66
2023-03-18T19:43:19.418Z,101198.91
2023-03-18T19:45:48.712Z,101196.31
2023-03-18T19:48:19.038Z,101201.56
2023-03-18T19:50:46.890Z,101202.44
2023-03-18T19:53:15.675Z,101205.09
2023-03-18T19:55:43.466Z,101198.97
2023-03-18T19:58:14.649Z,101208.63
2023-03-18T20:00:43.817Z,101202.50
2023-03-18T20:03:16.288Z,101201.69
2023-03-18T20:05:44.008Z,101204.31
2023-03-18T20:08:11.737Z,101204.31
2023-03-18T20:10:39.521Z,101206.94
2023-03-18T20:13:07.404Z,101213.03
2023-03-18T20:15:35.452Z,101221.84
2023-03-18T20:18:06.295Z,101226.25
2023-03-18T20:20:34.354Z,101221.00
2023-03-18T20:23:03.423Z,101225.38
2023-03-18T20:25:34.131Z,101220.13
2023-03-18T20:28:03.812Z,101223.66
2023-03-18T20:30:32.724Z,101228.06
2023-03-18T20:33:03.789Z,101228.06
2023-03-18T20:35:34.010Z,101230.69
2023-03-18T20:38:04.705Z,101228.09
2023-03-18T20:40:32.680Z,101224.63
2023-03-18T20:43:00.489Z,101221.97
2023-03-18T20:45:28.184Z,101220.22
2023-03-18T20:47:56.597Z,101225.47
2023-03-18T20:50:28.299Z,101223.75
2023-03-18T20:52:57.427Z,101222.03
2023-03-18T20:55:26.500Z,101217.69
2023-03-18T20:57:54.352Z,101221.16
2023-03-18T21:00:23.905Z,101221.22
2023-03-18T21:02:52.382Z,101231.69
2023-03-18T21:05:20.344Z,101227.34
2023-03-18T21:07:48.527Z,101229.97
2023-03-18T21:10:18.680Z,101232.59
2023-03-18T21:12:46.503Z,101222.13
2023-03-18T21:15:18.332Z,101223.00
2023-03-18T21:17:46.624Z,101226.50
2023-03-18T21:20:22.049Z,101227.38
2023-03-18T21:22:50.460Z,101220.38
2023-03-18T21:25:21.053Z,101222.13
2023-03-18T21:27:48.806Z,101207.25
2023-03-18T21:30:17.203Z,101217.78
2023-03-18T21:32:46.200Z,101216.94
2023-03-18T21:35:17.130Z,101206.41
2023-03-18T21:37:44.834Z,101211.69
2023-03-18T21:40:17.032Z,101204.66
2023-03-18T21:42:46.245Z,101207.28
2023-03-18T21:45:14.808Z,101204.66
2023-03-18T21:47:43.700Z,101203.78
2023-03-18T21:50:19.938Z,101211.72
2023-03-18T21:52:47.741Z,101210.81
2023-03-18T21:55:15.617Z,101203.81
2023-03-18T21:57:43.341Z,101210.81
2023-03-18T22:00:17.523Z,101208.19
2023-03-18T22:02:45.388Z,101208.22
2023-03-18T22:05:14.355Z,101210.00
2023-03-18T22:07:42.471Z,101215.28
2023-03-18T22:10:12.948Z,101216.13
2023-03-18T22:12:40.679Z,101216.16
2023-03-18T22:15:27.527Z,101224.03
2023-03-18T22:17:55.397Z,101217.94
2023-03-18T22:20:23.282Z,101217.06
2023-03-18T22:22:50.948Z,101216.22
2023-03-18T22:25:21.571Z,101212.66
2023-03-18T22:27:49.248Z,101214.41
2023-03-18T22:30:17.161Z,101210.94
2023-03-18T22:32:47.008Z,101213.59
2023-03-18T22:35:15.690Z,101210.97
2023-03-18T22:37:43.359Z,101203.09
2023-03-18T22:40:15.856Z,101210.09
2023-03-18T22:42:43.533Z,101208.38
2023-03-18T22:45:19.647Z,101211.88
2023-03-18T22:47:48.904Z,101208.38
2023-03-18T22:50:16.905Z,101196.16
2023-03-18T22:52:44.573Z,101210.13
2023-03-18T22:55:18.291Z,101201.41
2023-03-18T22:57:46.097Z,101203.16
2023-03-18T23:00:23.953Z,101204.91
2023-03-18T23:02:53.222Z,101203.16
2023-03-18T23:05:21.801Z,101196.19
2023-03-18T23:07:49.968Z,101196.19
2023-03-18T23:10:18.207Z,101197.09
2023-03-18T23:12:46.092Z,101197.97
2023-03-18T23:15:16.133Z,101204.09
2023-03-18T23:17:44.039Z,101197.13
2023-03-18T23:20:13.599Z,101191.84
2023-03-18T23:22:41.317Z,101194.50
2023-03-18T23:25:11.305Z,101192.75
2023-03-18T23:27:38.977Z,101186.63
2023-03-18T23:30:08.245Z,101188.38
2023-03-18T23:32:36.054Z,101201.50
2023-03-18T23:35:03.728Z,101203.31
2023-03-18T23:37:32.747Z,101194.53
2023-03-18T23:40:00.613Z,101196.28
2023-03-18T23:42:28.282Z,101194.56
2023-03-18T23:44:55.976Z,101210.34
2023-03-18T23:47:23.664Z,101203.34
2023-03-18T23:49:51.329Z,101203.34
2023-03-18T23:52:19.059Z,101200.72
2023-03-18T23:54:48.084Z,101193.75
2023-03-18T23:57:15.801Z,101193.75
2023-03-18T23:59:43.507Z,101195.50
